createdAt,value
2023-05-10T00:00:39.049Z,915.00
2023-05-10T00:01:38.059Z,908.00
2023-05-10T00:02:39.257Z,914.00
2023-05-10T00:03:39.152Z,911.00
2023-05-10T00:04:38.047Z,910.00
2023-05-10T00:05:39.075Z,913.00
2023-05-10T00:06:38.062Z,901.00
2023-05-10T00:07:38.049Z,900.00
2023-05-10T00:08:39.061Z,907.00
2023-05-10T00:09:38.067Z,904.00
2023-05-10T00:10:39.074Z,901.00
2023-05-10T00:11:38.824Z,904.00
2023-05-10T00:12:38.095Z,899.00
2023-05-10T00:13:39.128Z,913.00
2023-05-10T00:14:39.097Z,912.00
2023-05-10T00:15:39.074Z,899.00
2023-05-10T00:16:38.114Z,899.00
2023-05-10T00:17:38.143Z,905.00
2023-05-10T00:18:38.103Z,897.00
2023-05-10T00:19:38.098Z,896.00
2023-05-10T00:20:39.078Z,890.00
2023-05-10T00:21:39.091Z,899.00
2023-05-10T00:22:39.776Z,895.00
2023-05-10T00:23:39.110Z,896.00
2023-05-10T00:24:39.103Z,892.00
2023-05-10T00:25:38.105Z,887.00
2023-05-10T00:26:39.096Z,889.00
2023-05-10T00:27:39.124Z,889.00
2023-05-10T00:28:38.102Z,894.00
2023-05-10T00:29:39.100Z,891.00
2023-05-10T00:30:39.101Z,895.00
2023-05-10T00:31:38.140Z,893.00
2023-05-10T00:32:39.135Z,893.00
2023-05-10T00:33:39.125Z,878.00
2023-05-10T00:34:38.113Z,884.00
2023-05-10T00:35:38.108Z,885.00
2023-05-10T00:36:38.124Z,881.00
2023-05-10T00:37:39.131Z,883.00
2023-05-10T00:38:39.124Z,876.00
2023-05-10T00:39:39.119Z,873.00
2023-05-10T00:40:39.115Z,876.00
2023-05-10T00:41:39.133Z,880.00
2023-05-10T00:42:39.133Z,885.00
2023-05-10T00:43:39.170Z,882.00
2023-05-10T00:44:39.151Z,877.00
2023-05-10T00:45:39.260Z,882.00
2023-05-10T00:46:39.172Z,879.00
2023-05-10T00:47:39.226Z,872.00
2023-05-10T00:48:39.197Z,876.00
2023-05-10T00:49:38.200Z,873.00
2023-05-10T00:50:39.197Z,871.00
2023-05-10T00:51:39.191Z,880.00
2023-05-10T00:52:39.189Z,879.00
2023-05-10T00:53:39.233Z,872.00
2023-05-10T00:54:39.237Z,879.00
2023-05-10T00:55:39.213Z,873.00
2023-05-10T00:56:38.218Z,871.00
2023-05-10T00:57:39.251Z,868.00
2023-05-10T00:58:39.252Z,859.00
2023-05-10T00:59:39.279Z,867.00
2023-05-10T01:00:38.268Z,869.00
2023-05-10T01:01:39.308Z,872.00
2023-05-10T01:02:38.421Z,868.00
2023-05-10T01:03:38.416Z,865.00
2023-05-10T01:04:38.338Z,862.00
2023-05-10T01:05:38.338Z,866.00
2023-05-10T01:06:39.338Z,865.00
2023-05-10T01:07:39.350Z,863.00
2023-05-10T01:08:38.338Z,865.00
2023-05-10T01:09:39.363Z,860.00
2023-05-10T01:10:39.373Z,867.00
2023-05-10T01:11:39.365Z,858.00
2023-05-10T01:12:41.076Z,872.00
2023-05-10T01:13:39.382Z,865.00
2023-05-10T01:14:38.420Z,877.00
2023-05-10T01:15:39.565Z,868.00
2023-05-10T01:16:38.382Z,859.00
2023-05-10T01:17:39.359Z,853.00
2023-05-10T01:18:39.348Z,863.00
2023-05-10T01:19:39.337Z,861.00
2023-05-10T01:20:38.318Z,861.00
2023-05-10T01:21:38.316Z,857.00
2023-05-10T01:22:38.324Z,859.00
2023-05-10T01:23:39.308Z,855.00
2023-05-10T01:24:39.323Z,858.00
2023-05-10T01:25:39.309Z,854.00
2023-05-10T01:26:39.278Z,849.00
2023-05-10T01:27:39.598Z,842.00
2023-05-10T01:28:38.288Z,852.00
2023-05-10T01:29:38.302Z,846.00
2023-05-10T01:30:39.264Z,849.00
2023-05-10T01:31:39.392Z,849.00
2023-05-10T01:32:38.302Z,842.00
2023-05-10T01:33:39.223Z,842.00
2023-05-10T01:34:39.230Z,846.00
2023-05-10T01:35:39.217Z,836.00
2023-05-10T01:36:39.204Z,841.00
2023-05-10T01:37:39.215Z,851.00
2023-05-10T01:38:39.225Z,833.00
2023-05-10T01:39:38.203Z,849.00
2023-05-10T01:40:39.191Z,846.00
2023-05-10T01:41:38.177Z,840.00
2023-05-10T01:42:38.158Z,834.00
2023-05-10T01:43:39.178Z,840.00
2023-05-10T01:44:38.168Z,833.00
2023-05-10T01:45:39.153Z,837.00
2023-05-10T01:46:38.203Z,835.00
2023-05-10T01:47:39.187Z,846.00
2023-05-10T01:48:38.124Z,835.00
2023-05-10T01:49:38.115Z,834.00
2023-05-10T01:50:39.111Z,845.00
2023-05-10T01:51:39.105Z,834.00
2023-05-10T01:52:39.103Z,834.00
2023-05-10T01:53:38.110Z,830.00
2023-05-10T01:54:38.095Z,833.00
2023-05-10T01:55:39.078Z,832.00
2023-05-10T01:56:38.060Z,836.00
2023-05-10T01:57:39.053Z,829.00
2023-05-10T01:58:39.065Z,827.00
2023-05-10T01:59:39.079Z,831.00
2023-05-10T02:00:39.083Z,836.00
2023-05-10T02:01:38.066Z,826.00
2023-05-10T02:02:39.079Z,832.00
2023-05-10T02:03:39.119Z,829.00
2023-05-10T02:04:39.009Z,838.00
2023-05-10T02:05:39.016Z,817.00
2023-05-10T02:06:39.008Z,825.00
2023-05-10T02:07:38.990Z,821.00
2023-05-10T02:08:37.983Z,833.00
2023-05-10T02:09:38.976Z,822.00
2023-05-10T02:10:38.972Z,817.00
2023-05-10T02:11:38.973Z,824.00
2023-05-10T02:12:38.962Z,828.00
2023-05-10T02:13:38.960Z,821.00
2023-05-10T02:14:38.963Z,825.00
2023-05-10T02:15:38.963Z,829.00
2023-05-10T02:16:38.945Z,818.00
2023-05-10T02:17:39.031Z,822.00
2023-05-10T02:18:37.918Z,822.00
2023-05-10T02:19:37.955Z,820.00
2023-05-10T02:20:38.969Z,812.00
2023-05-10T02:21:39.017Z,818.00
2023-05-10T02:22:38.965Z,816.00
2023-05-10T02:23:38.980Z,820.00
2023-05-10T02:24:38.011Z,821.00
2023-05-10T02:25:39.015Z,814.00
2023-05-10T02:26:39.023Z,813.00
2023-05-10T02:27:39.073Z,813.00
2023-05-10T02:28:39.072Z,817.00
2023-05-10T02:29:38.094Z,819.00
2023-05-10T02:30:38.143Z,814.00
2023-05-10T02:31:39.174Z,812.00
2023-05-10T02:32:39.821Z,804.00
2023-05-10T02:33:38.171Z,815.00
2023-05-10T02:34:39.180Z,811.00
2023-05-10T02:35:39.255Z,804.00
2023-05-10T02:36:39.223Z,808.00
2023-05-10T02:37:39.260Z,809.00
2023-05-10T02:38:39.274Z,817.00
2023-05-10T02:39:38.276Z,802.00
2023-05-10T02:40:39.314Z,809.00
2023-05-10T02:41:38.333Z,800.00
2023-05-10T02:42:39.366Z,813.00
2023-05-10T02:43:39.383Z,811.00
2023-05-10T02:44:38.400Z,810.00
2023-05-10T02:45:39.427Z,799.00
2023-05-10T02:46:39.528Z,804.00
2023-05-10T02:47:38.507Z,801.00
2023-05-10T02:48:39.509Z,806.00
2023-05-10T02:49:38.518Z,803.00
2023-05-10T02:50:39.537Z,813.00
2023-05-10T02:51:38.577Z,812.00
2023-05-10T02:52:39.579Z,811.00
2023-05-10T02:53:38.609Z,807.00
2023-05-10T02:54:38.642Z,803.00
2023-05-10T02:55:38.671Z,811.00
2023-05-10T02:56:39.687Z,798.00
2023-05-10T02:57:38.697Z,807.00
2023-05-10T02:58:39.723Z,805.00
2023-05-10T02:59:39.745Z,800.00
2023-05-10T03:00:38.784Z,800.00
2023-05-10T03:01:39.827Z,800.00
2023-05-10T03:02:39.867Z,802.00
2023-05-10T03:03:39.844Z,802.00
2023-05-10T03:04:39.882Z,816.00
2023-05-10T03:05:39.880Z,812.00
2023-05-10T03:06:39.913Z,806.00
2023-05-10T03:07:39.980Z,807.00
2023-05-10T03:08:39.988Z,812.00
2023-05-10T03:09:39.982Z,799.00
2023-05-10T03:10:39.010Z,803.00
2023-05-10T03:11:40.036Z,799.00
2023-05-10T03:12:40.055Z,803.00
2023-05-10T03:13:40.120Z,801.00
2023-05-10T03:14:40.098Z,790.00
2023-05-10T03:15:40.176Z,795.00
2023-05-10T03:16:39.164Z,805.00
2023-05-10T03:17:40.239Z,793.00
2023-05-10T03:18:40.223Z,801.00
2023-05-10T03:19:40.256Z,801.00
2023-05-10T03:20:39.266Z,794.00
2023-05-10T03:21:39.293Z,797.00
2023-05-10T03:22:39.349Z,797.00
2023-05-10T03:23:40.364Z,800.00
2023-05-10T03:24:40.418Z,794.00
2023-05-10T03:25:39.382Z,794.00
2023-05-10T03:26:39.408Z,802.00
2023-05-10T03:27:40.440Z,791.00
2023-05-10T03:28:40.459Z,796.00
2023-05-10T03:29:40.481Z,794.00
2023-05-10T03:30:40.540Z,798.00
2023-05-10T03:31:40.571Z,797.00
2023-05-10T03:32:39.595Z,809.00
2023-05-10T03:33:40.590Z,798.00
2023-05-10T03:34:40.618Z,793.00
2023-05-10T03:35:39.659Z,798.00
2023-05-10T03:36:39.672Z,797.00
2023-05-10T03:37:39.693Z,792.00
2023-05-10T03:38:39.778Z,793.00
2023-05-10T03:39:40.800Z,796.00
2023-05-10T03:40:40.803Z,804.00
2023-05-10T03:41:40.820Z,788.00
2023-05-10T03:42:40.850Z,791.00
2023-05-10T03:43:40.891Z,794.00
2023-05-10T03:44:40.918Z,792.00
2023-05-10T03:45:40.942Z,798.00
2023-05-10T03:46:40.008Z,799.00
2023-05-10T03:47:41.019Z,786.00
2023-05-10T03:48:41.032Z,792.00
2023-05-10T03:49:41.051Z,797.00
2023-05-10T03:50:40.073Z,791.00
2023-05-10T03:51:40.089Z,790.00
2023-05-10T03:52:41.130Z,797.00
2023-05-10T03:53:41.140Z,793.00
2023-05-10T03:54:41.198Z,795.00
2023-05-10T03:55:41.228Z,790.00
2023-05-10T03:56:41.222Z,788.00
2023-05-10T03:57:41.251Z,789.00
2023-05-10T03:58:41.279Z,792.00
2023-05-10T03:59:41.318Z,797.00
2023-05-10T04:00:40.363Z,786.00
2023-05-10T04:01:40.414Z,788.00
2023-05-10T04:02:40.547Z,786.00
2023-05-10T04:03:41.608Z,793.00
2023-05-10T04:04:41.474Z,791.00
2023-05-10T04:05:41.519Z,788.00
2023-05-10T04:06:41.600Z,791.00
2023-05-10T04:07:40.568Z,783.00
2023-05-10T04:08:40.618Z,785.00
2023-05-10T04:09:41.638Z,783.00
2023-05-10T04:10:41.692Z,787.00
2023-05-10T04:11:40.731Z,790.00
2023-05-10T04:12:40.727Z,790.00
2023-05-10T04:13:41.778Z,780.00
2023-05-10T04:14:41.807Z,791.00
2023-05-10T04:15:41.864Z,795.00
2023-05-10T04:16:41.939Z,788.00
2023-05-10T04:17:41.920Z,792.00
2023-05-10T04:18:41.931Z,777.00
2023-05-10T04:19:41.956Z,788.00
2023-05-10T04:20:41.997Z,778.00
2023-05-10T04:21:41.031Z,779.00
2023-05-10T04:22:42.058Z,783.00
2023-05-10T04:23:42.117Z,782.00
2023-05-10T04:24:42.146Z,786.00
2023-05-10T04:25:42.175Z,786.00
2023-05-10T04:26:41.205Z,786.00
2023-05-10T04:27:42.279Z,779.00
2023-05-10T04:28:42.280Z,787.00
2023-05-10T04:29:42.320Z,781.00
2023-05-10T04:30:41.398Z,793.00
2023-05-10T04:31:42.382Z,782.00
2023-05-10T04:32:42.435Z,793.00
2023-05-10T04:33:41.488Z,779.00
2023-05-10T04:34:42.490Z,790.00
2023-05-10T04:35:42.541Z,780.00
2023-05-10T04:36:42.592Z,787.00
2023-05-10T04:37:42.613Z,793.00
2023-05-10T04:38:42.756Z,789.00
2023-05-10T04:39:42.693Z,778.00
2023-05-10T04:40:42.727Z,790.00
2023-05-10T04:41:42.786Z,790.00
2023-05-10T04:42:42.804Z,779.00
2023-05-10T04:43:42.861Z,780.00
2023-05-10T04:44:41.879Z,785.00
2023-05-10T04:45:42.931Z,792.00
2023-05-10T04:46:42.981Z,794.00
2023-05-10T04:47:42.998Z,785.00
2023-05-10T04:48:43.028Z,794.00
2023-05-10T04:49:43.074Z,782.00
2023-05-10T04:50:43.140Z,784.00
2023-05-10T04:51:43.139Z,781.00
2023-05-10T04:52:42.192Z,774.00
2023-05-10T04:53:48.511Z,788.00
2023-05-10T04:54:43.247Z,789.00
2023-05-10T04:55:43.264Z,792.00
2023-05-10T04:56:42.219Z,791.00
2023-05-10T04:57:43.196Z,794.00
2023-05-10T04:58:43.186Z,786.00
2023-05-10T04:59:42.205Z,802.00
2023-05-10T05:00:43.186Z,786.00
2023-05-10T05:01:43.216Z,791.00
2023-05-10T05:02:42.233Z,788.00
2023-05-10T05:03:43.270Z,790.00
2023-05-10T05:04:43.147Z,788.00
2023-05-10T05:05:43.141Z,779.00
2023-05-10T05:06:42.183Z,787.00
2023-05-10T05:07:43.129Z,776.00
2023-05-10T05:08:42.114Z,786.00
2023-05-10T05:09:43.119Z,789.00
2023-05-10T05:10:43.109Z,785.00
2023-05-10T05:11:43.120Z,786.00
2023-05-10T05:12:43.122Z,782.00
2023-05-10T05:13:42.085Z,794.00
2023-05-10T05:14:43.074Z,788.00
2023-05-10T05:15:42.093Z,791.00
2023-05-10T05:16:43.133Z,790.00
2023-05-10T05:17:43.257Z,796.00
2023-05-10T05:18:43.044Z,787.00
2023-05-10T05:19:43.040Z,787.00
2023-05-10T05:20:42.062Z,791.00
2023-05-10T05:21:42.028Z,799.00
2023-05-10T05:22:43.004Z,803.00
2023-05-10T05:23:43.017Z,799.00
2023-05-10T05:24:42.013Z,793.00
2023-05-10T05:25:43.049Z,796.00
2023-05-10T05:26:43.072Z,791.00
2023-05-10T05:27:43.145Z,787.00
2023-05-10T05:28:43.183Z,800.00
2023-05-10T05:29:42.241Z,803.00
2023-05-10T05:30:43.289Z,807.00
2023-05-10T05:31:43.456Z,796.00
2023-05-10T05:32:43.437Z,796.00
2023-05-10T05:33:43.392Z,794.00
2023-05-10T05:34:42.420Z,801.00
2023-05-10T05:35:43.486Z,798.00
2023-05-10T05:36:42.549Z,805.00
2023-05-10T05:37:43.551Z,811.00
2023-05-10T05:38:43.628Z,792.00
2023-05-10T05:39:42.639Z,809.00
2023-05-10T05:40:43.672Z,818.00
2023-05-10T05:41:43.746Z,832.00
2023-05-10T05:42:43.762Z,838.00
2023-05-10T05:43:42.784Z,845.00
2023-05-10T05:44:42.840Z,858.00
2023-05-10T05:45:43.903Z,874.00
2023-05-10T05:46:43.915Z,904.00
2023-05-10T05:47:43.921Z,914.00
2023-05-10T05:48:43.899Z,927.00
2023-05-10T05:49:42.918Z,911.00
2023-05-10T05:50:42.952Z,905.00
2023-05-10T05:51:43.971Z,889.00
2023-05-10T05:52:43.968Z,885.00
2023-05-10T05:53:43.960Z,899.00
2023-05-10T05:54:43.972Z,916.00
2023-05-10T05:55:43.065Z,931.00
2023-05-10T05:56:44.018Z,954.00
2023-05-10T05:57:43.046Z,1004.00
2023-05-10T05:58:44.081Z,1067.00
2023-05-10T05:59:44.164Z,1114.00
2023-05-10T06:00:43.243Z,1128.00
2023-05-10T06:01:44.378Z,1156.00
2023-05-10T06:02:44.535Z,1169.00
2023-05-10T06:03:44.412Z,1192.00
2023-05-10T06:04:44.880Z,1173.00
2023-05-10T06:05:43.441Z,1178.00
2023-05-10T06:06:44.459Z,1177.00
2023-05-10T06:07:44.507Z,1224.00
2023-05-10T06:08:44.546Z,1237.00
2023-05-10T06:09:43.664Z,1250.00
2023-05-10T06:10:44.565Z,1251.00
2023-05-10T06:11:44.598Z,1279.00
2023-05-10T06:12:43.620Z,1300.00
2023-05-10T06:13:44.619Z,1322.00
2023-05-10T06:14:44.628Z,1344.00
2023-05-10T06:15:44.662Z,1358.00
2023-05-10T06:16:44.686Z,1367.00
2023-05-10T06:17:43.678Z,1387.00
2023-05-10T06:18:44.790Z,1409.00
2023-05-10T06:19:44.718Z,1430.00
2023-05-10T06:20:44.657Z,1454.00
2023-05-10T06:21:44.684Z,1443.00
2023-05-10T06:22:44.655Z,1477.00
2023-05-10T06:23:44.664Z,1499.00
2023-05-10T06:24:44.691Z,1508.00
2023-05-10T06:25:43.733Z,1528.00
2023-05-10T06:26:43.756Z,1524.00
2023-05-10T06:27:44.703Z,1533.00
2023-05-10T06:28:43.899Z,1542.00
2023-05-10T06:29:44.920Z,1542.00
2023-05-10T06:30:44.997Z,1574.00
2023-05-10T06:31:45.048Z,1589.00
2023-05-10T06:32:45.176Z,1600.00
2023-05-10T06:33:45.152Z,1647.00
2023-05-10T06:34:44.175Z,1634.00
2023-05-10T06:35:44.254Z,1636.00
2023-05-10T06:36:45.259Z,1637.00
2023-05-10T06:37:45.326Z,1652.00
2023-05-10T06:38:44.374Z,1670.00
2023-05-10T06:39:45.447Z,1678.00
2023-05-10T06:40:45.470Z,1693.00
2023-05-10T06:41:45.536Z,1711.00
2023-05-10T06:42:44.573Z,1743.00
2023-05-10T06:43:45.641Z,1721.00
2023-05-10T06:44:45.712Z,1729.00
2023-05-10T06:45:44.803Z,1745.00
2023-05-10T06:46:44.908Z,1751.00
2023-05-10T06:47:45.945Z,1776.00
2023-05-10T06:48:45.961Z,1783.00
2023-05-10T06:49:45.045Z,1777.00
2023-05-10T06:50:46.110Z,1820.00
2023-05-10T06:51:46.401Z,1823.00
2023-05-10T06:52:45.167Z,1835.00
2023-05-10T06:53:46.210Z,1840.00
2023-05-10T06:54:46.319Z,1836.00
2023-05-10T06:55:46.327Z,1868.00
2023-05-10T06:56:45.902Z,1885.00
2023-05-10T06:57:46.484Z,1874.00
2023-05-10T06:58:46.559Z,1888.00
2023-05-10T06:59:46.568Z,1884.00
2023-05-10T07:00:45.729Z,1878.00
2023-05-10T07:01:46.694Z,1871.00
2023-05-10T07:02:46.063Z,1861.00
2023-05-10T07:03:45.750Z,1862.00
2023-05-10T07:04:46.812Z,1860.00
2023-05-10T07:05:45.863Z,1831.00
2023-05-10T07:06:46.928Z,1826.00
2023-05-10T07:07:46.931Z,1832.00
2023-05-10T07:08:47.017Z,1823.00
2023-05-10T07:09:47.029Z,1816.00
2023-05-10T07:10:47.078Z,1810.00
2023-05-10T07:11:46.104Z,1817.00
2023-05-10T07:12:46.218Z,1809.00
2023-05-10T07:13:46.776Z,1796.00
2023-05-10T07:14:46.097Z,1787.00
2023-05-10T07:15:47.106Z,1785.00
2023-05-10T07:16:47.098Z,1788.00
2023-05-10T07:17:47.122Z,1759.00
2023-05-10T07:18:46.061Z,1771.00
2023-05-10T07:19:46.065Z,1764.00
2023-05-10T07:20:46.104Z,1757.00
2023-05-10T07:21:46.068Z,1755.00
2023-05-10T07:22:46.093Z,1745.00
2023-05-10T07:23:47.058Z,1735.00
2023-05-10T07:24:47.080Z,1751.00
2023-05-10T07:25:47.094Z,1723.00
2023-05-10T07:26:46.105Z,1749.00
2023-05-10T07:27:46.133Z,1745.00
2023-05-10T07:28:46.171Z,1719.00
2023-05-10T07:29:47.215Z,1720.00
2023-05-10T07:30:47.359Z,1722.00
2023-05-10T07:31:47.315Z,1712.00
2023-05-10T07:32:47.342Z,1725.00
2023-05-10T07:33:46.347Z,1705.00
2023-05-10T07:34:47.392Z,1733.00
2023-05-10T07:35:47.414Z,1717.00
2023-05-10T07:36:46.491Z,1689.00
2023-05-10T07:37:47.528Z,1691.00
2023-05-10T07:38:46.592Z,1693.00
2023-05-10T07:39:47.550Z,1695.00
2023-05-10T07:40:46.609Z,1686.00
2023-05-10T07:41:46.655Z,1686.00
2023-05-10T07:42:47.698Z,1694.00
2023-05-10T07:43:47.783Z,1689.00
2023-05-10T07:44:46.798Z,1697.00
2023-05-10T07:45:47.940Z,1673.00
2023-05-10T07:46:46.914Z,1670.00
2023-05-10T07:47:47.933Z,1668.00
2023-05-10T07:48:48.024Z,1659.00
2023-05-10T07:49:48.007Z,1660.00
2023-05-10T07:50:47.031Z,1646.00
2023-05-10T07:51:48.421Z,1677.00
2023-05-10T07:52:48.119Z,1649.00
2023-05-10T07:53:47.154Z,1652.00
2023-05-10T07:54:47.246Z,1662.00
2023-05-10T07:55:47.227Z,1656.00
2023-05-10T07:56:48.387Z,1672.00
2023-05-10T07:57:47.327Z,1638.00
2023-05-10T07:58:48.370Z,1662.00
2023-05-10T07:59:48.380Z,1646.00
2023-05-10T08:00:47.464Z,1630.00
2023-05-10T08:01:48.488Z,1641.00
2023-05-10T08:02:47.590Z,1644.00
2023-05-10T08:03:48.686Z,1616.00
2023-05-10T08:04:47.616Z,1623.00
2023-05-10T08:05:48.667Z,1643.00
2023-05-10T08:06:47.730Z,1595.00
2023-05-10T08:07:48.781Z,1599.00
2023-05-10T08:08:47.822Z,1602.00
2023-05-10T08:09:48.869Z,1609.00
2023-05-10T08:10:48.964Z,1590.00
2023-05-10T08:11:49.006Z,1590.00
2023-05-10T08:12:49.097Z,1597.00
2023-05-10T08:13:49.129Z,1591.00
2023-05-10T08:14:48.171Z,1610.00
2023-05-10T08:15:49.281Z,1602.00
2023-05-10T08:16:49.312Z,1615.00
2023-05-10T08:17:48.446Z,1598.00
2023-05-10T08:18:49.472Z,1590.00
2023-05-10T08:19:49.513Z,1579.00
2023-05-10T08:20:48.559Z,1599.00
2023-05-10T08:21:49.641Z,1588.00
2023-05-10T08:22:51.690Z,1589.00
2023-05-10T08:23:48.669Z,1604.00
2023-05-10T08:24:48.675Z,1578.00
2023-05-10T08:25:49.670Z,1562.00
2023-05-10T08:26:49.709Z,1588.00
2023-05-10T08:27:49.901Z,1568.00
2023-05-10T08:28:48.644Z,1574.00
2023-05-10T08:29:50.385Z,1578.00
2023-05-10T08:30:49.614Z,1581.00
2023-05-10T08:31:49.766Z,1569.00
2023-05-10T08:32:49.657Z,1553.00
2023-05-10T08:33:49.612Z,1583.00
2023-05-10T08:34:48.616Z,1553.00
2023-05-10T08:35:48.594Z,1557.00
2023-05-10T08:36:49.590Z,1560.00
2023-05-10T08:37:49.581Z,1538.00
2023-05-10T08:38:50.284Z,1558.00
2023-05-10T08:39:49.679Z,1552.00
2023-05-10T08:40:49.729Z,1563.00
2023-05-10T08:41:49.791Z,1546.00
2023-05-10T08:42:49.995Z,1513.00
2023-05-10T08:43:48.922Z,1552.00
2023-05-10T08:44:49.992Z,1551.00
2023-05-10T08:45:50.042Z,1341.00
2023-05-10T08:46:49.048Z,1111.00
2023-05-10T08:47:50.118Z,910.00
2023-05-10T08:48:50.100Z,797.00
2023-05-10T08:49:50.117Z,701.00
2023-05-10T08:50:49.100Z,651.00
2023-05-10T08:51:50.173Z,638.00
2023-05-10T08:52:49.160Z,613.00
2023-05-10T08:53:50.217Z,598.00
2023-05-10T08:54:50.269Z,579.00
2023-05-10T08:55:50.311Z,568.00
2023-05-10T08:56:49.918Z,546.00
2023-05-10T08:57:50.914Z,520.00
2023-05-10T08:58:50.509Z,516.00
2023-05-10T08:59:49.516Z,500.00
2023-05-10T09:00:50.540Z,506.00
2023-05-10T09:01:50.521Z,500.00
2023-05-10T09:02:50.625Z,503.00
2023-05-10T09:03:49.596Z,499.00
2023-05-10T09:04:50.660Z,503.00
2023-05-10T09:05:49.607Z,506.00
2023-05-10T09:06:49.622Z,514.00
2023-05-10T09:07:49.671Z,511.00
2023-05-10T09:08:50.706Z,518.00
2023-05-10T09:09:49.746Z,517.00
2023-05-10T09:10:49.794Z,518.00
2023-05-10T09:11:49.815Z,514.00
2023-05-10T09:12:50.870Z,501.00
2023-05-10T09:13:50.905Z,522.00
2023-05-10T09:14:50.954Z,533.00
2023-05-10T09:15:51.003Z,547.00
2023-05-10T09:16:51.102Z,563.00
2023-05-10T09:17:50.104Z,594.00
2023-05-10T09:18:51.202Z,600.00
2023-05-10T09:19:51.139Z,628.00
2023-05-10T09:20:50.170Z,630.00
2023-05-10T09:21:51.207Z,640.00
2023-05-10T09:22:51.193Z,645.00
2023-05-10T09:23:50.189Z,638.00
2023-05-10T09:24:51.197Z,641.00
2023-05-10T09:25:51.200Z,652.00
2023-05-10T09:26:51.198Z,657.00
2023-05-10T09:27:51.195Z,651.00
2023-05-10T09:28:51.206Z,659.00
2023-05-10T09:29:50.217Z,678.00
2023-05-10T09:30:50.271Z,696.00
2023-05-10T09:31:51.295Z,695.00
2023-05-10T09:32:51.463Z,713.00
2023-05-10T09:33:50.413Z,714.00
2023-05-10T09:34:51.488Z,730.00
2023-05-10T09:35:51.525Z,733.00
2023-05-10T09:36:51.655Z,724.00
2023-05-10T09:37:51.640Z,736.00
2023-05-10T09:38:51.709Z,738.00
2023-05-10T09:39:50.758Z,741.00
2023-05-10T09:40:51.794Z,684.00
2023-05-10T09:41:51.850Z,640.00
2023-05-10T09:42:51.929Z,619.00
2023-05-10T09:43:51.920Z,589.00
2023-05-10T09:44:51.887Z,573.00
2023-05-10T09:45:50.958Z,574.00
2023-05-10T09:46:51.998Z,584.00
2023-05-10T09:47:52.490Z,582.00
2023-05-10T09:48:50.901Z,582.00
2023-05-10T09:49:50.945Z,559.00
2023-05-10T09:50:52.002Z,564.00
2023-05-10T09:51:52.051Z,569.00
2023-05-10T09:52:52.589Z,573.00
2023-05-10T09:53:51.121Z,600.00
2023-05-10T09:54:51.110Z,623.00
2023-05-10T09:55:52.121Z,644.00
2023-05-10T09:56:51.115Z,678.00
2023-05-10T09:57:52.478Z,711.00
2023-05-10T09:58:52.233Z,701.00
2023-05-10T09:59:52.269Z,731.00
2023-05-10T10:00:51.303Z,782.00
2023-05-10T10:01:51.392Z,786.00
2023-05-10T10:02:52.477Z,748.00
2023-05-10T10:03:52.359Z,800.00
2023-05-10T10:04:51.439Z,789.00
2023-05-10T10:05:52.421Z,804.00
2023-05-10T10:06:52.386Z,830.00
2023-05-10T10:07:52.400Z,845.00
2023-05-10T10:08:51.376Z,836.00
2023-05-10T10:09:52.436Z,823.00
2023-05-10T10:10:52.388Z,855.00
2023-05-10T10:11:51.381Z,836.00
2023-05-10T10:12:52.390Z,875.00
2023-05-10T10:13:52.437Z,785.00
2023-05-10T10:14:52.382Z,770.00
2023-05-10T10:15:52.502Z,742.00
2023-05-10T10:17:05.674Z,790.00
2023-05-10T10:17:52.506Z,776.00
2023-05-10T10:18:52.458Z,798.00
2023-05-10T10:19:51.385Z,792.00
2023-05-10T10:20:52.370Z,784.00
2023-05-10T10:21:51.407Z,802.00
2023-05-10T10:22:52.401Z,730.00
2023-05-10T10:23:52.347Z,711.00
2023-05-10T10:24:51.338Z,656.00
2023-05-10T10:25:51.322Z,663.00
2023-05-10T10:26:51.348Z,687.00
2023-05-10T10:27:51.385Z,737.00
2023-05-10T10:28:52.328Z,783.00
2023-05-10T10:29:51.307Z,767.00
2023-05-10T10:30:51.287Z,729.00
2023-05-10T10:31:51.412Z,747.00
2023-05-10T10:32:52.488Z,687.00
2023-05-10T10:33:52.455Z,705.00
2023-05-10T10:34:52.369Z,666.00
2023-05-10T10:35:52.386Z,724.00
2023-05-10T10:36:52.420Z,625.00
2023-05-10T10:37:52.525Z,658.00
2023-05-10T10:38:51.534Z,646.00
2023-05-10T10:39:52.607Z,697.00
2023-05-10T10:40:52.672Z,663.00
2023-05-10T10:41:52.670Z,651.00
2023-05-10T10:42:52.675Z,648.00
2023-05-10T10:43:52.951Z,621.00
2023-05-10T10:44:51.659Z,582.00
2023-05-10T10:45:52.764Z,593.00
2023-05-10T10:46:52.779Z,570.00
2023-05-10T10:47:51.768Z,616.00
2023-05-10T10:48:51.748Z,643.00
2023-05-10T10:49:52.947Z,657.00
2023-05-10T10:50:52.778Z,748.00
2023-05-10T10:51:51.780Z,777.00
2023-05-10T10:52:51.842Z,814.00
2023-05-10T10:53:51.930Z,774.00
2023-05-10T10:54:52.979Z,796.00
2023-05-10T10:55:52.987Z,825.00
2023-05-10T10:56:53.008Z,852.00
2023-05-10T10:57:53.074Z,855.00
2023-05-10T10:58:53.056Z,855.00
2023-05-10T10:59:52.100Z,908.00
2023-05-10T11:00:52.190Z,889.00
2023-05-10T11:01:52.143Z,883.00
2023-05-10T11:02:52.165Z,863.00
2023-05-10T11:03:53.246Z,877.00
2023-05-10T11:04:53.166Z,952.00
2023-05-10T11:05:52.937Z,943.00
2023-05-10T11:06:52.207Z,914.00
2023-05-10T11:07:53.184Z,927.00
2023-05-10T11:08:53.213Z,963.00
2023-05-10T11:09:52.244Z,975.00
2023-05-10T11:10:53.373Z,980.00
2023-05-10T11:11:52.294Z,997.00
2023-05-10T11:12:53.393Z,988.00
2023-05-10T11:13:53.386Z,1003.00
2023-05-10T11:14:52.487Z,1018.00
2023-05-10T11:15:52.530Z,989.00
2023-05-10T11:16:53.651Z,1026.00
2023-05-10T11:17:53.601Z,1020.00
2023-05-10T11:18:53.717Z,1036.00
2023-05-10T11:19:53.641Z,1022.00
2023-05-10T11:20:53.694Z,1040.00
2023-05-10T11:21:53.723Z,1055.00
2023-05-10T11:22:53.807Z,1048.00
2023-05-10T11:23:52.839Z,1021.00
2023-05-10T11:24:52.857Z,1067.00
2023-05-10T11:25:52.862Z,1052.00
2023-05-10T11:26:53.927Z,1062.00
2023-05-10T11:27:52.916Z,1030.00
2023-05-10T11:28:53.925Z,1020.00
2023-05-10T11:29:53.946Z,1036.00
2023-05-10T11:30:52.976Z,998.00
2023-05-10T11:31:53.990Z,1005.00
2023-05-10T11:32:54.076Z,1004.00
2023-05-10T11:33:53.033Z,950.00
2023-05-10T11:34:53.029Z,1007.00
2023-05-10T11:35:54.043Z,1007.00
2023-05-10T11:36:54.062Z,996.00
2023-05-10T11:37:54.122Z,954.00
2023-05-10T11:38:54.182Z,984.00
2023-05-10T11:39:54.149Z,1022.00
2023-05-10T11:40:53.119Z,1026.00
2023-05-10T11:41:54.194Z,1068.00
2023-05-10T11:42:54.132Z,1092.00
2023-05-10T11:43:53.158Z,1034.00
2023-05-10T11:44:53.149Z,1013.00
2023-05-10T11:45:54.230Z,1002.00
2023-05-10T11:46:54.207Z,1015.00
2023-05-10T11:47:54.238Z,999.00
2023-05-10T11:48:53.326Z,1001.00
2023-05-10T11:49:53.257Z,995.00
2023-05-10T11:50:53.269Z,958.00
2023-05-10T11:51:54.312Z,939.00
2023-05-10T11:52:54.383Z,925.00
2023-05-10T11:53:54.412Z,790.00
2023-05-10T11:54:54.795Z,866.00
2023-05-10T11:55:54.466Z,876.00
2023-05-10T11:56:54.532Z,787.00
2023-05-10T11:57:53.587Z,827.00
2023-05-10T11:58:53.653Z,882.00
2023-05-10T11:59:54.778Z,904.00
2023-05-10T12:00:53.727Z,898.00
2023-05-10T12:01:53.787Z,910.00
2023-05-10T12:02:54.986Z,914.00
2023-05-10T12:03:55.073Z,916.00
2023-05-10T12:04:54.915Z,934.00
2023-05-10T12:05:54.919Z,887.00
2023-05-10T12:06:54.995Z,846.00
2023-05-10T12:07:54.054Z,870.00
2023-05-10T12:08:54.067Z,897.00
2023-05-10T12:09:54.119Z,878.00
2023-05-10T12:10:54.188Z,920.00
2023-05-10T12:11:54.205Z,878.00
2023-05-10T12:12:55.266Z,824.00
2023-05-10T12:13:54.315Z,705.00
2023-05-10T12:14:54.366Z,664.00
2023-05-10T12:15:55.389Z,655.00
2023-05-10T12:16:55.464Z,627.00
2023-05-10T12:17:54.487Z,641.00
2023-05-10T12:18:55.420Z,619.00
2023-05-10T12:19:54.398Z,609.00
2023-05-10T12:20:54.398Z,606.00
2023-05-10T12:21:54.430Z,607.00
2023-05-10T12:22:55.430Z,630.00